Station KOZA2 - KOTZEBUE MXAK, AK Image indicating link to RSS feed of recent meteorological observations for station KOZA2


Conditions at KOZA2 as of
0304 GMT on 07/16/2024:
     

Click on the graph icon in the table below to see a time series plot of the last five days of that observation.

5-day plot - Wind Direction Wind Direction (WDIR):SSW ( 200 deg true )
5-day plot - Wind Speed Wind Speed (WSPD): 5 kts
5-day plot - Wind Gust Wind Gust (GST): 9 kts
5-day plot - Atmospheric Pressure Atmospheric Pressure (PRES):29.61 in
5-day plot - Air Temperature Air Temperature (ATMP): 58.1 °F
5-day plot - Dew Point Dew Point (DEWP): 41.5 °F
5-day plot - Wind Speed at 10 Meters Wind Speed at 10 meters (WSPD10M): 6 kts
5-day plot - Wind Speed at 20 Meters Wind Speed at 20 meters (WSPD20M): 6 kts
5-day plot -  Wind Speed, Wind Gust and Atmospheric Pressure Combined plot of Wind Speed, Gust, and Air Pressure
Previous observations
TIME
(GMT)
5-day plot - Wind Direction
WDIR
 
5-day plot - Wind Speed
WSPD
kts
5-day plot - Wind Gust
GST
kts
5-day plot - Wave Height
WVHT
ft
5-day plot - Dominant Wave Period
DPD
sec
5-day plot - Average Wave Period
APD
sec
5-day plot - Mean Wave Direction
MWD
 
5-day plot - Atmospheric Pressure
PRES
in
5-day plot - Pressure Tendency
PTDY
in
5-day plot - Air Temperature
ATMP
°F
5-day plot - Water Temperature
WTMP
°F
5-day plot - Dew Point
DEWP
°F
5-day plot - Salinity
SAL
psu
5-day plot - Visibility
VIS
nmi
5-day plot - Tide (above MLLW)
TIDE
ft
2024-07-16 0254SSW 5 9----29.61- 58.3- 42.1---
2024-07-16 0244SSW 5 8----29.61- 58.3- 42.8---
2024-07-16 0234SSW 6 9----29.61- 57.9- 43.0---
2024-07-16 0224 SW 4 9----29.61- 57.7- 43.2---
2024-07-16 0214 SW 5 9----29.61- 57.6- 43.0---
2024-07-16 0154 SW 6 9----29.61- 57.2- 43.2---
2024-07-16 0144 SW 5 9----29.61- 58.1- 43.2---
2024-07-16 0134 SW 5 9----29.61- 57.6- 43.3---
2024-07-16 0114WSW 6 11----29.61- 57.4- 43.9---
2024-07-16 0104 SW 6 10----29.61- 57.2- 43.5---
2024-07-16 0054 SW 6 10----29.61- 57.2- 44.6---
2024-07-16 0044WSW 6 10----29.61- 57.4- 44.2---
2024-07-16 0034WSW 7 10----29.61- 57.0- 43.7---
2024-07-16 0024WSW 7 10----29.61- 56.8- 44.2---
2024-07-16 0014WSW 8 10----29.61- 56.3- 44.1---
2024-07-15 2354 SW 8 11----29.61- 56.3- 44.4---
2024-07-15 2344WSW 8 11----29.61- 56.5- 44.6---
2024-07-15 2334 SW 8 12----29.60- 57.0- 44.1---
2024-07-15 2324 SW 8 11----29.60- 56.3- 44.1---
2024-07-15 2314 SW 8 12----29.60- 56.5- 43.7---
2024-07-15 2304 SW 8 13----29.60- 56.1- 44.1---
2024-07-15 2254 SW 8 11----29.60- 55.8- 44.8---
2024-07-15 2244 SW 8 13----29.59- 55.8- 44.2---
2024-07-15 2234 SW 8 14----29.59- 55.8- 43.5---
2024-07-15 2224 SW 7 12----29.59- 55.8- 45.1---
2024-07-15 2214SSW 7 12----29.59- 55.6- 45.5---
2024-07-15 2204 SW 7 11----29.59- 55.2- 46.0---
2024-07-15 2154 SW 8 12----29.59- 55.0- 46.9---
2024-07-15 2144 SW 7 12----29.59- 55.6- 47.3---
2024-07-15 2134 SW 8 11----29.59- 55.0- 47.3---
2024-07-15 2124WSW 8 11----29.59- 55.2- 47.7---
2024-07-15 2114 SW 7 12----29.59- 55.9- 47.5---
2024-07-15 2104 SW 7 11----29.59- 55.2- 46.9---
2024-07-15 2054 SW 6 10----29.59- 54.5- 46.0---
2024-07-15 2044 SW 7 11----29.58- 54.5- 46.0---
2024-07-15 2034 SW 7 10----29.58- 54.7- 46.2---
2024-07-15 2024 SW 7 10----29.58- 55.0- 46.6---
2024-07-15 2014WSW 6 9----29.58- 55.0- 46.6---
2024-07-15 2004WSW 6 9----29.58- 55.6- 47.1---
2024-07-15 1944WSW 7 11----29.58- 54.3- 48.0---
2024-07-15 1934WSW 7 9----29.58- 54.5- 47.8---
2024-07-15 1924 SW 6 9----29.58- 54.7- 47.8---
2024-07-15 1914WSW 6 9----29.57- 54.7- 47.8---
2024-07-15 1904WSW 6 9----29.57- 54.5- 48.0---
2024-07-15 1834 SW 5 9----29.57- 55.0- 47.7---
2024-07-15 1824 SW 5 9----29.57- 54.5- 47.3---
2024-07-15 1814SSW 5 9----29.57- 54.3- 47.1---
2024-07-15 1804 SW 6 10----29.57- 54.1- 47.7---
2024-07-15 1754 SW 5 9----29.57- 54.1- 48.2---
2024-07-15 1744 SW 6 9----29.57- 53.6- 47.5---
2024-07-15 1734 SW 5 9----29.56- 53.6- 47.3---
2024-07-15 1724SSW 5 7----29.56- 53.6- 46.9---
2024-07-15 1704SSW 6 10----29.56- 53.1- 48.0---
2024-07-15 1644SSW 5 9----29.55- 53.1- 48.7---
2024-07-15 1634SSW 5 8----29.55- 52.9- 49.3---
2024-07-15 1624SSW 5 8----29.55- 52.5- 50.2---
2024-07-15 1614SSW 4 7----29.55- 52.2- 50.5---
2024-07-15 1604 S 6 8----29.55- 51.8- 50.5---
2024-07-15 1554 S 6 9----29.55- 51.3- 50.0---
2024-07-15 1544 S 6 8----29.55- 50.7- 49.6---
2024-07-15 1534 S 4 7----29.54- 50.2- 49.6---
2024-07-15 1524 S 3 5----29.54- 50.2- 49.8---
2024-07-15 1504 S 3 5----29.53- 50.0- 50.0---
2024-07-15 1454 S 3 5----29.53- 50.2- 50.2---
2024-07-15 1444SSE 3 5----29.53- 50.4- 50.4---
2024-07-15 1434SSE 4 6----29.52- 50.5- 50.5---
2024-07-15 1424SSE 5 7----29.52- 50.9- 50.9---
2024-07-15 1414SSE 5 7----29.52- 50.9- 50.9---
2024-07-15 1404 SE 2 4----29.52- 50.7- 50.7---
2024-07-15 1354ESE 2 3----29.52- 50.7- 50.7---
2024-07-15 1344 E 2 4----29.52- 50.9- 50.9---
2024-07-15 1334SSE 3 4----29.52- 50.9- 50.9---
2024-07-15 1324 S 3 5----29.52- 50.9- 50.7---
2024-07-15 1314 S 3 5----29.51- 51.4- 50.9---
2024-07-15 1304 S 3 5----29.51- 51.4- 50.9---
2024-07-15 1254 S 4 5----29.51- 51.8- 51.1---
2024-07-15 1234WSW 4 7----29.51- 53.1- 50.4---
2024-07-15 1224WSW 5 7----29.50- 53.1- 50.5---
2024-07-15 1214WSW 5 8----29.50- 52.9- 50.4---
2024-07-15 1204WSW 4 7----29.50- 52.7- 50.7---
2024-07-15 1154 SW 4 7----29.50- 52.0- 51.3---
2024-07-15 1144 SW 3 7----29.50- 50.7- 50.7---
2024-07-15 1134ESE 2 4----29.50- 50.2- 50.2---
2024-07-15 1124ESE 1 3----29.50- 50.5- 50.5---
2024-07-15 1114SSE 3 4----29.50- 50.7- 50.7---
2024-07-15 1104SSE 3 5----29.50- 50.9- 50.9---
2024-07-15 1054SSE 3 5----29.50- 50.7- 50.7---
2024-07-15 1044 S 4 5----29.49- 50.9- 50.9---
2024-07-15 1034SSE 4 7----29.49- 51.4- 51.4---
2024-07-15 1014 S 6 9----29.48- 52.3- 52.3---
2024-07-15 1004 S 5 9----29.48- 52.5- 52.5---
2024-07-15 0954 S 6 9----29.48- 52.5- 52.5---
2024-07-15 0944 S 6 9----29.48- 52.3- 52.3---
2024-07-15 0924 S 6 9----29.47- 52.3- 52.3---
2024-07-15 0914 S 5 8----29.47- 52.9- 52.5---
2024-07-15 0854 S 4 7----29.47- 53.4- 52.7---
2024-07-15 0844 S 5 7----29.46- 53.6- 52.5---
2024-07-15 0834 S 5 7----29.46- 54.0- 52.7---
2024-07-15 0814SSW 5 8----29.45- 54.5- 52.5---
2024-07-15 0804SSW 5 8----29.45- 54.7- 52.5---
2024-07-15 0754SSW 5 10----29.44- 54.7- 53.1---
2024-07-15 0744SSW 6 11----29.44- 54.7- 53.2---
2024-07-15 0734SSW 5 9----29.44- 54.9- 53.6---
2024-07-15 0724SSW 5 10----29.43- 54.9- 53.6---
2024-07-15 0714 SW 6 10----29.43- 55.2- 53.6---
2024-07-15 0704 SW 6 10----29.42- 55.4- 53.8---
2024-07-15 0654 SW 7 11----29.42- 55.4- 53.8---
2024-07-15 0644SSW 6 10----29.42- 55.8- 53.8---
2024-07-15 0634SSW 6 10----29.41- 55.9- 53.4---
2024-07-15 0624SSW 7 11----29.41- 56.1- 53.2---
2024-07-15 0614SSW 8 13----29.41- 56.3- 53.4---
2024-07-15 0604SSW 7 12----29.41- 56.8- 52.9---
2024-07-15 0554SSW 8 13----29.40- 57.2- 52.3---
2024-07-15 0534SSW 8 14----29.40- 57.9- 51.6---
2024-07-15 0524SSW 8 13----29.39- 58.3- 50.9---
2024-07-15 0514 S 9 15----29.39- 58.5- 49.8---
2024-07-15 0504SSW 9 16----29.39- 59.0- 49.1---
2024-07-15 0454 S 10 16----29.39- 59.4- 48.7---
2024-07-15 0444 S 11 17----29.39- 59.4- 48.7---
2024-07-15 0434 S 10 14----29.39- 59.4- 48.9---
2024-07-15 0424 S 10 15----29.38- 59.2- 49.5---
2024-07-15 0414 S 9 15----29.38- 59.2- 49.3---
2024-07-15 0404 S 10 15----29.38- 59.2- 49.3---
2024-07-15 0354 S 10 17----29.38- 59.5- 50.0---
2024-07-15 0344 S 11 15----29.37- 59.2- 50.0---
2024-07-15 0324 S 10 17----29.37- 59.4- 50.9---
2024-07-15 0314 S 11 20----29.37- 59.2- 51.1---
2024-07-15 0304 S 11 16----29.36- 58.8- 51.4---
2024-07-15 0254 S 12 17----29.36- 58.6- 52.0---